Time;durP1;ratioP1;P1;durP2;ratioP2;P2;SDS_P1;SDS_P2;PMS_P1;PMS_P2;Temp;Humidity;BMP_temperature;BMP_pressure;BME280_temperature;BME280_humidity;BME280_pressure;Samples;Min_cycle;Max_cycle;Signal;HPM_P1;HPM_P2
2022/03/20 00:02:04;;;;;;;;;;;;;;;7.49;60.16;99233.31;5120591;28;19924;-61
2022/03/20 00:04:31;;;;;;;;;;;;;;;7.54;60.39;99235.34;5123792;28;19997;-61
2022/03/20 00:06:57;;;;;;;;;;;;;;;7.51;60.76;99241.91;5123832;28;19931;-61
2022/03/20 00:09:23;;;;;;;;;;;;;;;7.54;61.25;99241.47;5120851;28;19959;-61
2022/03/20 00:11:51;;;;;;;;;;;;;;;7.59;60.93;99246.16;5102793;28;20023;-61
2022/03/20 00:14:17;;;;;;;;;;;;;;;7.68;60.96;99231.59;5123887;28;19962;-61
2022/03/20 00:16:44;;;;;;;;;;;;;;;7.67;60.72;99234.47;5123955;28;19924;-60
2022/03/20 00:19:10;;;;;;;;;;;;;;;7.56;60.88;99239.41;5122706;28;19958;-61
2022/03/20 00:21:37;;;;;;;;;;;;;;;7.45;61.89;99237.44;5120034;28;19919;-61
2022/03/20 00:24:04;;;;;;;;;;;;;;;7.48;62.59;99233.53;5120182;28;19978;-61
2022/03/20 00:26:30;;;;;;;;;;;;;;;7.31;62.46;99230.53;5120039;28;19955;-61
2022/03/20 00:28:58;;;;;;;;;;;;;;;7.24;63.68;99237.69;5120020;28;19926;-61
2022/03/20 00:31:25;;;;;;;;;;;;;;;7.28;63.46;99236.25;5122949;28;20602;-61
2022/03/20 00:33:51;;;;;;;;;;;;;;;7.19;64.30;99242.81;5123539;28;19970;-59
2022/03/20 00:36:18;;;;;;;;;;;;;;;7.22;64.24;99236.28;5121511;28;20305;-60
2022/03/20 00:38:44;;;;;;;;;;;;;;;7.33;64.41;99233.81;5119905;28;19924;-59
2022/03/20 00:41:10;;;;;;;;;;;;;;;7.43;64.37;99234.16;5120513;28;19924;-61
2022/03/20 00:43:38;;;;;;;;;;;;;;;7.28;64.81;99233.59;5126670;28;20029;-61
2022/03/20 00:46:06;;;;;;;;;;;;;;;7.50;64.16;99242.09;5101693;28;19935;-61
2022/03/20 00:48:32;;;;;;;;;;;;;;;7.33;65.15;99233.81;5122978;28;19931;-61
2022/03/20 00:51:03;;;;;;;;;;;;;;;7.16;65.58;99229.13;5123060;28;19983;-61
2022/03/20 00:53:30;;;;;;;;;;;;;;;7.20;65.63;99233.00;5119496;28;19930;-61
2022/03/20 00:55:56;;;;;;;;;;;;;;;7.12;66.02;99228.72;5119367;28;19987;-60
2022/03/20 00:58:22;;;;;;;;;;;;;;;7.09;66.92;99237.13;5122038;28;19932;-60
2022/03/20 01:00:50;;;;;;;;;;;;;;;6.93;67.56;99237.59;5122938;28;19931;-60
2022/03/20 01:03:19;;;;;;;;;;;;;;;7.02;67.70;99229.16;5120672;28;19924;-61
2022/03/20 01:05:45;;;;;;;;;;;;;;;7.02;68.25;99233.69;5119021;28;19934;-60
2022/03/20 01:08:11;;;;;;;;;;;;;;;6.96;68.79;99230.00;5120025;28;19924;-60
2022/03/20 01:10:38;;;;;;;;;;;;;;;6.86;68.89;99226.97;5122782;28;19923;-60
2022/03/20 01:13:04;;;;;;;;;;;;;;;6.83;69.80;99232.69;5125082;28;19984;-60
2022/03/20 01:15:31;;;;;;;;;;;;;;;6.84;69.75;99222.88;5119224;28;19938;-62
2022/03/20 01:17:58;;;;;;;;;;;;;;;6.66;70.74;99223.50;5119134;28;19920;-61
2022/03/20 01:20:26;;;;;;;;;;;;;;;6.72;71.45;99220.03;5122077;28;19967;-61
2022/03/20 01:22:52;;;;;;;;;;;;;;;6.72;71.78;99225.34;5122591;28;19928;-60
2022/03/20 01:25:19;;;;;;;;;;;;;;;6.71;71.54;99215.75;5120195;28;19958;-62
2022/03/20 01:27:46;;;;;;;;;;;;;;;6.78;71.91;99221.03;5100853;28;19924;-61
2022/03/20 01:30:13;;;;;;;;;;;;;;;6.67;72.41;99217.19;5120143;28;20019;-61
2022/03/20 01:32:39;;;;;;;;;;;;;;;6.83;71.49;99210.63;5122203;28;19991;-61
2022/03/20 01:35:06;;;;;;;;;;;;;;;6.70;72.35;99216.78;5122239;28;20506;-60
2022/03/20 01:37:35;;;;;;;;;;;;;;;6.67;72.87;99213.72;5100824;28;19946;-61
2022/03/20 01:40:01;;;;;;;;;;;;;;;6.68;73.67;99218.81;5118150;28;19920;-61
2022/03/20 01:42:28;;;;;;;;;;;;;;;6.61;73.73;99214.53;5123921;28;19973;-61
2022/03/20 01:44:54;;;;;;;;;;;;;;;6.59;74.59;99211.28;5121445;28;19951;-60
2022/03/20 01:47:21;;;;;;;;;;;;;;;6.56;75.32;99215.13;5119075;28;19920;-61
2022/03/20 01:49:47;;;;;;;;;;;;;;;6.51;75.69;99212.28;5117948;28;19982;-61
2022/03/20 01:52:24;;;;;;;;;;;;;;;6.49;75.77;99207.22;5119542;28;19980;-61
2022/03/20 01:54:52;;;;;;;;;;;;;;;6.48;76.53;99218.84;5121443;28;19930;-61
2022/03/20 01:57:20;;;;;;;;;;;;;;;6.53;76.49;99210.25;5119390;28;19970;-61
2022/03/20 01:59:46;;;;;;;;;;;;;;;6.53;76.62;99204.94;5118260;28;19963;-61
2022/03/20 02:02:13;;;;;;;;;;;;;;;6.43;77.45;99201.91;5100956;28;20341;-60
2022/03/20 02:04:40;;;;;;;;;;;;;;;6.57;77.53;99213.31;5121082;28;19924;-61
2022/03/20 02:07:08;;;;;;;;;;;;;;;6.80;76.00;99195.09;5120772;28;19959;-61
2022/03/20 02:09:38;;;;;;;;;;;;;;;6.74;75.25;99198.59;5117773;28;19924;-61
2022/03/20 02:12:07;;;;;;;;;;;;;;;6.55;76.97;99196.78;5102215;28;19963;-61
2022/03/20 02:14:33;;;;;;;;;;;;;;;6.55;78.05;99194.94;5121093;28;19986;-60
2022/03/20 02:17:00;;;;;;;;;;;;;;;6.73;77.25;99189.00;5121207;28;19934;-61
2022/03/20 02:19:28;;;;;;;;;;;;;;;6.53;77.68;99192.47;5117781;28;19928;-60
2022/03/20 02:21:55;;;;;;;;;;;;;;;6.48;78.90;99192.28;5117512;28;19931;-61
2022/03/20 02:24:29;;;;;;;;;;;;;;;6.42;79.34;99197.59;5119961;28;19983;-60
2022/03/20 02:27:01;;;;;;;;;;;;;;;6.47;79.28;99201.25;5121065;28;19934;-60
2022/03/20 02:29:28;;;;;;;;;;;;;;;6.53;79.46;99194.31;5117701;28;19928;-60
2022/03/20 02:31:54;;;;;;;;;;;;;;;6.63;78.66;99197.38;5117780;28;19970;-60
2022/03/20 02:34:21;;;;;;;;;;;;;;;6.53;79.14;99200.44;5120026;28;19924;-60
2022/03/20 02:36:47;;;;;;;;;;;;;;;6.59;79.05;99195.34;5121233;28;19950;-60
2022/03/20 02:39:15;;;;;;;;;;;;;;;6.66;79.01;99196.13;5119823;28;19973;-60
2022/03/20 02:41:42;;;;;;;;;;;;;;;6.53;79.52;99194.31;5099266;28;20006;-61
2022/03/20 02:44:08;;;;;;;;;;;;;;;6.44;80.23;99196.38;5120682;28;19931;-61
2022/03/20 02:46:38;;;;;;;;;;;;;;;6.41;80.24;99201.25;5120936;28;19924;-61
2022/03/20 02:49:06;;;;;;;;;;;;;;;6.37;81.08;99203.53;5120840;28;19995;-60
2022/03/20 02:51:32;;;;;;;;;;;;;;;6.31;81.77;99201.66;5117286;28;19932;-61
2022/03/20 02:53:59;;;;;;;;;;;;;;;6.33;82.28;99204.97;5120450;28;20668;-61
2022/03/20 02:56:27;;;;;;;;;;;;;;;6.50;81.47;99214.13;5123977;28;19924;-61
2022/03/20 02:58:54;;;;;;;;;;;;;;;6.25;81.69;99202.47;5124527;28;20346;-61
2022/03/20 03:01:21;;;;;;;;;;;;;;;6.41;81.63;99218.00;5122179;28;19923;-61
2022/03/20 03:03:47;;;;;;;;;;;;;;;6.55;81.06;99218.84;5121017;28;19969;-61
2022/03/20 03:06:13;;;;;;;;;;;;;;;6.54;81.00;99211.88;5122987;28;19935;-59
2022/03/20 03:11:24;;;;;;;;;;;;;;;6.53;80.87;99215.53;5122385;28;20110;-60
2022/03/20 03:13:51;;;;;;;;;;;;;;;6.49;81.45;99214.34;5124284;28;19927;-61
2022/03/20 03:16:18;;;;;;;;;;;;;;;6.47;81.54;99225.16;5124338;28;19942;-60
2022/03/20 03:18:45;;;;;;;;;;;;;;;6.61;80.36;99225.16;5125559;28;19976;-60
2022/03/20 03:21:12;;;;;;;;;;;;;;;6.48;81.11;99218.84;5124821;28;19924;-60
2022/03/20 03:23:38;;;;;;;;;;;;;;;6.48;81.96;99229.44;5122495;28;19924;-60
2022/03/20 03:26:05;;;;;;;;;;;;;;;6.43;82.31;99231.09;5122681;28;20003;-60
2022/03/20 03:28:34;;;;;;;;;;;;;;;6.54;81.64;99230.47;5125139;28;19930;-60
2022/03/20 03:31:03;;;;;;;;;;;;;;;6.58;81.77;99231.69;5124872;28;19924;-61
2022/03/20 03:33:29;;;;;;;;;;;;;;;6.51;82.15;99231.69;5112803;28;19983;-61
2022/03/20 03:35:56;;;;;;;;;;;;;;;6.45;82.46;99229.84;5112780;28;19987;-61
2022/03/20 03:38:23;;;;;;;;;;;;;;;6.39;82.23;99230.66;5112728;28;19924;-61
2022/03/20 03:40:50;;;;;;;;;;;;;;;6.42;82.40;99229.44;5112413;28;19967;-61
2022/03/20 03:43:17;;;;;;;;;;;;;;;6.43;82.50;99231.09;5123580;28;19924;-61
2022/03/20 03:45:44;;;;;;;;;;;;;;;6.36;82.33;99230.25;5102619;28;19927;-61
2022/03/20 03:48:12;;;;;;;;;;;;;;;6.13;84.10;99235.94;5121660;28;19983;-61
2022/03/20 03:50:39;;;;;;;;;;;;;;;6.14;84.32;99221.66;5124470;28;19981;-61
2022/03/20 03:53:06;;;;;;;;;;;;;;;6.21;83.73;99227.81;5124409;28;19923;-61
2022/03/20 03:55:32;;;;;;;;;;;;;;;6.11;84.12;99221.25;5120906;28;19987;-61
2022/03/20 03:57:59;;;;;;;;;;;;;;;6.11;84.26;99224.72;5121051;28;19924;-61
2022/03/20 04:00:26;;;;;;;;;;;;;;;6.30;83.42;99221.28;5123583;28;19928;-60
2022/03/20 04:02:52;;;;;;;;;;;;;;;6.29;82.79;99219.63;5123806;28;19924;-60
2022/03/20 04:05:20;;;;;;;;;;;;;;;6.28;82.74;99225.16;5121625;28;19966;-60
2022/03/20 04:07:47;;;;;;;;;;;;;;;6.25;82.75;99223.72;5120333;28;19924;-61
2022/03/20 04:10:14;;;;;;;;;;;;;;;6.18;83.20;99222.91;5121788;28;19935;-60
2022/03/20 04:12:42;;;;;;;;;;;;;;;6.23;82.80;99224.94;5126424;28;19987;-60
2022/03/20 04:15:09;;;;;;;;;;;;;;;6.17;83.24;99226.56;5123176;28;19931;-60
2022/03/20 04:17:35;;;;;;;;;;;;;;;6.05;83.75;99225.53;5119984;28;19920;-60
2022/03/20 04:20:02;;;;;;;;;;;;;;;6.06;84.43;99234.31;5120114;28;19924;-60
2022/03/20 04:22:30;;;;;;;;;;;;;;;5.99;84.40;99236.94;5123392;28;19931;-60
2022/03/20 04:24:57;;;;;;;;;;;;;;;6.10;83.94;99239.00;5123717;28;19919;-61
2022/03/20 04:27:23;;;;;;;;;;;;;;;6.00;84.02;99241.25;5120890;28;19959;-61
2022/03/20 04:29:50;;;;;;;;;;;;;;;5.86;84.78;99243.03;5119864;28;19947;-61
2022/03/20 04:32:16;;;;;;;;;;;;;;;5.77;85.16;99246.84;5121673;28;19928;-61
2022/03/20 04:34:43;;;;;;;;;;;;;;;5.86;85.17;99234.25;5105275;28;19928;-61
2022/03/20 04:37:10;;;;;;;;;;;;;;;5.88;84.86;99237.56;5122576;28;19991;-59
2022/03/20 04:39:39;;;;;;;;;;;;;;;5.82;84.86;99233.00;5119813;28;19931;-61
2022/03/20 04:42:05;;;;;;;;;;;;;;;5.86;84.41;99250.16;5122253;28;20018;-61
2022/03/20 04:44:32;;;;;;;;;;;;;;;5.72;85.03;99238.69;5123003;28;19963;-60
2022/03/20 04:46:59;;;;;;;;;;;;;;;5.69;85.36;99243.56;5123212;28;19928;-61
2022/03/20 05:00:23;;;;;;;;;;;;;;;6.21;82.14;99259.66;5122029;28;19924;-60
2022/03/20 05:02:49;;;;;;;;;;;;;;;6.22;80.95;99255.16;5123036;28;19930;-61
2022/03/20 05:05:16;;;;;;;;;;;;;;;6.23;81.43;99254.13;5121144;28;20179;-61
2022/03/20 05:07:43;;;;;;;;;;;;;;;6.15;80.57;99265.75;5119369;28;19924;-61
2022/03/20 05:15:40;;;;;;;;;;;;;;;6.48;79.79;99276.41;5118405;28;20541;-60
2022/03/20 05:18:06;;;;;;;;;;;;;;;6.84;78.50;99276.00;5119560;28;19931;-61
2022/03/20 05:20:33;;;;;;;;;;;;;;;6.76;77.32;99281.50;5122817;28;19999;-60
2022/03/20 05:23:00;;;;;;;;;;;;;;;6.71;77.29;99279.47;5122831;28;20496;-61
2022/03/20 05:25:29;;;;;;;;;;;;;;;6.79;77.48;99284.56;5119417;28;19935;-61
2022/03/20 05:27:55;;;;;;;;;;;;;;;7.00;76.96;99294.16;5119595;28;19962;-61
2022/03/20 05:30:21;;;;;;;;;;;;;;;6.79;75.53;99292.53;5121801;28;19924;-61
2022/03/20 05:32:48;;;;;;;;;;;;;;;6.89;76.18;99292.94;5122732;28;19931;-61
2022/03/20 05:35:16;;;;;;;;;;;;;;;6.93;75.84;99303.97;5121368;28;19920;-61
2022/03/20 05:37:42;;;;;;;;;;;;;;;7.02;75.31;99297.44;5118953;28;19924;-61
2022/03/20 05:40:10;;;;;;;;;;;;;;;7.14;75.07;99303.75;5101551;28;19924;-60
2022/03/20 05:42:37;;;;;;;;;;;;;;;7.12;73.55;99303.13;5124877;28;20362;-61
2022/03/20 05:45:04;;;;;;;;;;;;;;;7.08;74.01;99304.56;5122343;28;19954;-61
2022/03/20 05:47:31;;;;;;;;;;;;;;;7.17;73.04;99308.66;5110436;28;19959;-61
2022/03/20 05:49:58;;;;;;;;;;;;;;;7.35;71.98;99311.47;5110435;28;19931;-59
2022/03/20 05:52:24;;;;;;;;;;;;;;;7.15;71.36;99309.88;5110270;28;19928;-59
2022/03/20 05:54:50;;;;;;;;;;;;;;;6.77;72.76;99318.50;5110315;28;19924;-60
2022/03/20 06:00:03;;;;;;;;;;;;;;;6.46;80.54;99320.91;5110221;28;19951;-60
2022/03/20 06:02:30;;;;;;;;;;;;;;;6.44;80.82;99315.78;5118659;28;19924;-60
2022/03/20 06:04:56;;;;;;;;;;;;;;;6.69;80.65;99320.50;5118767;28;20047;-60
2022/03/20 06:07:22;;;;;;;;;;;;;;;6.71;81.03;99318.47;5121303;28;19935;-60
2022/03/20 06:09:49;;;;;;;;;;;;;;;7.11;79.06;99330.72;5122217;28;19927;-61
2022/03/20 06:12:15;;;;;;;;;;;;;;;7.27;76.97;99329.47;5122138;28;19983;-61
2022/03/20 06:14:41;;;;;;;;;;;;;;;7.19;76.67;99321.72;5122120;28;19955;-61
2022/03/20 06:17:09;;;;;;;;;;;;;;;6.98;78.59;99334.22;5121420;28;20018;-61
2022/03/20 06:19:36;;;;;;;;;;;;;;;7.09;77.98;99337.28;5118529;28;19966;-60
2022/03/20 06:22:03;;;;;;;;;;;;;;;7.37;77.61;99337.81;5118713;28;19920;-61
2022/03/20 06:24:29;;;;;;;;;;;;;;;7.55;76.48;99336.16;5118260;28;19970;-61
2022/03/20 06:26:55;;;;;;;;;;;;;;;7.97;72.95;99336.63;5119809;28;19988;-61
2022/03/20 06:29:22;;;;;;;;;;;;;;;8.29;70.92;99335.69;5124772;28;19924;-61
2022/03/20 06:31:51;;;;;;;;;;;;;;;8.56;68.96;99331.84;5125806;28;19974;-61
2022/03/20 06:34:20;;;;;;;;;;;;;;;8.64;68.23;99341.38;5123781;28;19923;-61
2022/03/20 06:36:47;;;;;;;;;;;;;;;8.89;67.51;99342.22;5122255;28;20246;-61
2022/03/20 06:39:13;;;;;;;;;;;;;;;8.86;67.67;99341.84;5123304;28;19956;-61
2022/03/20 06:41:40;;;;;;;;;;;;;;;8.47;69.52;99338.44;5125423;28;19924;-61
2022/03/20 06:44:06;;;;;;;;;;;;;;;8.13;71.79;99346.78;5125531;28;19955;-61
2022/03/20 06:46:37;;;;;;;;;;;;;;;7.84;75.63;99344.66;5125507;28;19920;-61
2022/03/20 06:49:03;;;;;;;;;;;;;;;7.43;75.55;99351.09;5125440;28;19920;-60
2022/03/20 06:51:31;;;;;;;;;;;;;;;7.37;73.11;99353.78;5113385;28;19979;-60
2022/03/20 06:53:57;;;;;;;;;;;;;;;7.23;70.29;99346.84;5113571;28;19984;-60
2022/03/20 06:56:24;;;;;;;;;;;;;;;7.13;69.26;99352.59;5113408;28;20014;-59
2022/03/20 06:58:50;;;;;;;;;;;;;;;7.12;68.14;99353.59;5113356;28;19931;-59
2022/03/20 07:01:17;;;;;;;;;;;;;;;7.14;67.32;99350.75;5113561;28;19928;-59
2022/03/20 07:03:43;;;;;;;;;;;;;;;7.00;66.93;99356.06;5113455;28;19920;-59
2022/03/20 07:06:09;;;;;;;;;;;;;;;7.07;66.87;99362.19;5095457;28;19946;-60
2022/03/20 07:08:37;;;;;;;;;;;;;;;7.09;66.64;99366.50;5096404;28;19952;-60
2022/03/20 07:11:03;;;;;;;;;;;;;;;7.25;65.52;99361.56;5113590;28;19959;-60
2022/03/20 07:16:16;;;;;;;;;;;;;;;7.36;63.91;99366.28;5122929;28;19948;-60
2022/03/20 07:18:42;;;;;;;;;;;;;;;7.34;62.52;99367.47;5125204;28;19924;-60
2022/03/20 07:21:09;;;;;;;;;;;;;;;7.42;63.30;99370.75;5124400;28;19923;-60
2022/03/20 07:23:37;;;;;;;;;;;;;;;7.49;62.14;99370.72;5121416;28;20011;-60
2022/03/20 07:31:31;;;;;;;;;;;;;;;7.44;60.46;99373.19;5121610;28;19995;-61
2022/03/20 07:33:58;;;;;;;;;;;;;;;7.37;59.89;99375.84;5121618;28;19966;-61
2022/03/20 07:36:24;;;;;;;;;;;;;;;7.33;59.08;99374.66;5124174;28;20026;-61
2022/03/20 07:38:52;;;;;;;;;;;;;;;7.43;59.24;99380.34;5123939;28;19931;-60
2022/03/20 07:41:18;;;;;;;;;;;;;;;7.53;58.99;99380.75;5122731;28;20583;-61
2022/03/20 07:43:45;;;;;;;;;;;;;;;7.51;58.30;99380.16;5123869;28;19928;-61
2022/03/20 07:46:12;;;;;;;;;;;;;;;7.54;57.86;99393.03;5122194;28;19932;-60
2022/03/20 07:48:39;;;;;;;;;;;;;;;7.66;57.90;99387.88;5124706;28;19966;-60
2022/03/20 07:51:06;;;;;;;;;;;;;;;7.73;57.37;99382.53;5124557;28;19924;-59
2022/03/20 07:53:32;;;;;;;;;;;;;;;7.82;56.70;99375.97;5120930;28;19935;-60
2022/03/20 07:55:59;;;;;;;;;;;;;;;7.81;56.48;99380.47;5121118;28;19924;-61
2022/03/20 07:58:26;;;;;;;;;;;;;;;7.82;56.21;99378.63;5123766;28;20466;-62
2022/03/20 08:00:52;;;;;;;;;;;;;;;7.86;56.16;99374.53;5124442;28;19991;-61
2022/03/20 08:03:19;;;;;;;;;;;;;;;7.90;55.96;99378.38;5122409;28;19924;-61
2022/03/20 08:05:45;;;;;;;;;;;;;;;7.90;55.18;99379.22;5120637;28;19920;-60
2022/03/20 08:08:15;;;;;;;;;;;;;;;7.89;54.99;99376.78;5121595;28;20014;-61
2022/03/20 08:10:42;;;;;;;;;;;;;;;7.87;55.01;99379.63;5124141;28;20001;-61
2022/03/20 08:13:10;;;;;;;;;;;;;;;7.99;54.98;99387.75;5126262;28;19955;-61
2022/03/20 08:15:37;;;;;;;;;;;;;;;8.03;54.64;99381.00;5120443;28;19928;-61
2022/03/20 08:18:06;;;;;;;;;;;;;;;8.15;54.78;99376.66;5120686;28;19928;-61
2022/03/20 08:20:32;;;;;;;;;;;;;;;8.27;54.70;99382.94;5120676;28;19924;-61
2022/03/20 08:22:59;;;;;;;;;;;;;;;8.25;53.92;99390.34;5120498;28;20030;-60
2022/03/20 08:25:26;;;;;;;;;;;;;;;8.29;53.78;99388.94;5123308;28;19928;-60
2022/03/20 08:27:53;;;;;;;;;;;;;;;8.26;53.58;99389.31;5123801;28;19985;-61
2022/03/20 08:30:21;;;;;;;;;;;;;;;8.30;53.19;99390.53;5121588;28;19950;-61
2022/03/20 08:32:48;;;;;;;;;;;;;;;8.34;53.24;99390.94;5120201;28;19951;-60
2022/03/20 08:35:14;;;;;;;;;;;;;;;8.46;53.20;99376.75;5121562;28;19924;-61
2022/03/20 08:37:43;;;;;;;;;;;;;;;8.52;53.28;99383.88;5123674;28;19973;-61
2022/03/20 08:40:15;;;;;;;;;;;;;;;8.53;53.02;99390.84;5122879;28;20032;-61
2022/03/20 08:42:41;;;;;;;;;;;;;;;8.62;52.71;99394.88;5124720;28;19924;-61
2022/03/20 08:45:08;;;;;;;;;;;;;;;8.63;52.52;99391.16;5122977;28;19928;-60
2022/03/20 08:47:36;;;;;;;;;;;;;;;8.58;51.97;99399.00;5119807;28;19924;-60
2022/03/20 08:50:03;;;;;;;;;;;;;;;8.51;52.29;99381.44;5119729;28;19934;-60
2022/03/20 08:52:30;;;;;;;;;;;;;;;8.53;52.47;99387.34;5123102;28;19959;-61
2022/03/20 08:54:56;;;;;;;;;;;;;;;8.69;52.65;99392.19;5123242;28;20342;-60
2022/03/20 08:57:25;;;;;;;;;;;;;;;8.76;52.23;99386.81;5102569;28;20047;-60
2022/03/20 08:59:51;;;;;;;;;;;;;;;8.81;51.70;99387.78;5119526;28;19928;-60
2022/03/20 09:02:18;;;;;;;;;;;;;;;8.92;51.33;99384.44;5121256;28;19928;-60
2022/03/20 09:04:45;;;;;;;;;;;;;;;8.97;51.08;99386.44;5123062;28;19983;-61
2022/03/20 09:07:12;;;;;;;;;;;;;;;9.02;51.15;99378.63;5121883;28;19934;-60
2022/03/20 09:09:38;;;;;;;;;;;;;;;8.99;50.91;99387.03;5118803;28;20026;-61
2022/03/20 09:12:05;;;;;;;;;;;;;;;8.99;51.01;99384.38;5121473;28;19924;-61
2022/03/20 09:14:31;;;;;;;;;;;;;;;9.03;50.97;99390.91;5110348;28;19931;-61
2022/03/20 09:19:42;;;;;;;;;;;;;;;9.06;50.77;99375.31;5110213;28;19970;-61
2022/03/20 09:22:11;;;;;;;;;;;;;;;9.26;50.74;99380.47;5110349;28;19996;-61
2022/03/20 09:24:38;;;;;;;;;;;;;;;9.22;50.36;99373.94;5118414;28;19951;-60
2022/03/20 09:27:05;;;;;;;;;;;;;;;9.36;50.57;99380.78;5118626;28;19964;-61
2022/03/20 09:29:32;;;;;;;;;;;;;;;9.33;50.20;99375.88;5118559;28;19930;-62
2022/03/20 09:31:58;;;;;;;;;;;;;;;9.58;50.11;99379.34;5118624;28;19935;-61
2022/03/20 09:34:25;;;;;;;;;;;;;;;9.55;49.82;99379.78;5121568;28;20010;-60
2022/03/20 09:36:51;;;;;;;;;;;;;;;9.56;49.13;99378.72;5103978;28;19949;-60
2022/03/20 09:39:19;;;;;;;;;;;;;;;9.65;48.60;99373.94;5120219;28;19953;-61
2022/03/20 09:41:47;;;;;;;;;;;;;;;9.70;48.86;99382.09;5118228;28;19980;-61
2022/03/20 09:44:15;;;;;;;;;;;;;;;9.69;49.51;99380.44;5121921;28;19924;-61
2022/03/20 09:46:42;;;;;;;;;;;;;;;9.70;49.62;99380.25;5121916;28;20062;-61
2022/03/20 09:49:09;;;;;;;;;;;;;;;9.71;49.09;99381.88;5121578;28;19950;-61
2022/03/20 09:51:35;;;;;;;;;;;;;;;9.94;48.84;99388.38;5118476;28;19925;-61
2022/03/20 09:54:02;;;;;;;;;;;;;;;10.05;48.59;99385.00;5118485;28;19988;-60
2022/03/20 09:56:29;;;;;;;;;;;;;;;10.12;47.77;99385.72;5121559;28;19995;-61
2022/03/20 09:58:56;;;;;;;;;;;;;;;10.10;47.47;99388.63;5103796;28;19949;-61
2022/03/20 10:01:22;;;;;;;;;;;;;;;10.19;47.19;99389.97;5118868;28;19939;-61
2022/03/20 10:04:06;;;;;;;;;;;;;;;10.26;46.59;99390.72;5099927;28;20004;-61
2022/03/20 10:06:35;;;;;;;;;;;;;;;10.41;46.94;99382.28;5117901;28;19955;-61
2022/03/20 10:09:03;;;;;;;;;;;;;;;10.44;46.22;99389.03;5117962;28;20420;-61
2022/03/20 10:11:31;;;;;;;;;;;;;;;10.42;46.49;99391.94;5103359;28;19946;-61
2022/03/20 10:14:08;;;;;;;;;;;;;;;10.44;46.49;99384.50;5122650;28;20028;-60
2022/03/20 10:16:34;;;;;;;;;;;;;;;10.34;46.38;99386.91;5118153;28;19951;-60
2022/03/20 10:19:01;;;;;;;;;;;;;;;10.46;46.99;99382.41;5100034;28;19987;-61
2022/03/20 10:21:41;;;;;;;;;;;;;;;10.65;46.82;99389.34;5121063;28;19939;-61
2022/03/20 10:24:15;;;;;;;;;;;;;;;10.83;46.28;99383.94;5121060;28;19955;-60
2022/03/20 10:26:42;;;;;;;;;;;;;;;10.80;45.48;99383.56;5117802;28;20014;-61
2022/03/20 10:29:14;;;;;;;;;;;;;;;10.88;45.71;99379.78;5118911;28;19955;-61
2022/03/20 10:31:47;;;;;;;;;;;;;;;10.79;45.22;99380.13;5121614;28;19920;-60
2022/03/20 10:34:14;;;;;;;;;;;;;;;10.75;45.11;99372.78;5120482;28;19960;-61
2022/03/20 10:36:42;;;;;;;;;;;;;;;10.91;45.08;99388.16;5118332;28;19967;-61
2022/03/20 10:39:11;;;;;;;;;;;;;;;10.92;44.67;99375.63;5118632;28;19928;-61
2022/03/20 10:41:38;;;;;;;;;;;;;;;10.90;44.58;99375.81;5121223;28;20391;-61
2022/03/20 10:44:14;;;;;;;;;;;;;;;11.06;45.17;99371.69;5121441;28;19924;-61
2022/03/20 10:46:41;;;;;;;;;;;;;;;11.03;44.93;99366.78;5109300;28;19927;-60
2022/03/20 10:49:07;;;;;;;;;;;;;;;11.07;44.46;99373.31;5109635;28;19992;-61
2022/03/20 10:51:41;;;;;;;;;;;;;;;11.18;44.17;99365.31;5109304;28;19927;-61
2022/03/20 10:54:09;;;;;;;;;;;;;;;11.11;43.96;99374.50;5109173;28;19927;-61
2022/03/20 10:56:36;;;;;;;;;;;;;;;11.21;44.23;99372.03;5109173;28;19963;-61
2022/03/20 10:59:13;;;;;;;;;;;;;;;11.26;43.71;99372.97;5109314;28;19924;-60
2022/03/20 11:01:40;;;;;;;;;;;;;;;11.33;43.84;99364.84;5117328;28;19924;-61
2022/03/20 11:04:08;;;;;;;;;;;;;;;11.38;43.37;99360.44;5099667;28;19975;-61
2022/03/20 11:06:34;;;;;;;;;;;;;;;11.41;43.47;99367.19;5120976;28;19927;-61
2022/03/20 11:09:04;;;;;;;;;;;;;;;11.41;42.83;99363.69;5120970;28;20288;-60
2022/03/20 11:11:30;;;;;;;;;;;;;;;11.62;43.15;99373.78;5117497;28;19974;-60
2022/03/20 11:13:59;;;;;;;;;;;;;;;11.52;42.71;99368.22;5121547;28;19930;-62
2022/03/20 11:16:28;;;;;;;;;;;;;;;11.60;43.45;99368.69;5124050;28;19963;-61
2022/03/20 11:18:55;;;;;;;;;;;;;;;11.61;43.04;99364.94;5124455;28;19959;-61
2022/03/20 11:21:21;;;;;;;;;;;;;;;11.66;42.95;99350.88;5103997;28;19924;-61
2022/03/20 11:23:48;;;;;;;;;;;;;;;11.62;42.34;99369.25;5120918;28;19984;-61
2022/03/20 11:26:14;;;;;;;;;;;;;;;11.63;42.61;99373.56;5122290;28;19950;-60
2022/03/20 11:28:45;;;;;;;;;;;;;;;11.78;42.54;99363.22;5124651;28;20439;-61
2022/03/20 11:31:12;;;;;;;;;;;;;;;11.93;42.60;99352.03;5123976;28;19963;-61
2022/03/20 11:33:42;;;;;;;;;;;;;;;11.91;42.00;99357.59;5121187;28;19924;-61
2022/03/20 11:36:08;;;;;;;;;;;;;;;11.96;40.97;99356.91;5121831;28;19955;-61
2022/03/20 11:38:36;;;;;;;;;;;;;;;11.94;41.81;99353.66;5124613;28;19927;-62
2022/03/20 11:41:07;;;;;;;;;;;;;;;12.01;41.19;99348.19;5124691;28;19923;-61
2022/03/20 11:43:34;;;;;;;;;;;;;;;12.04;41.62;99353.06;5123840;28;19935;-61
2022/03/20 11:46:28;;;;;;;;;;;;;;;11.99;41.47;99355.59;5121015;28;19932;-61
2022/03/20 11:49:13;;;;;;;;;;;;;;;11.94;41.63;99353.66;5111344;28;19982;-61
2022/03/20 11:51:53;;;;;;;;;;;;;;;12.07;41.01;99349.91;5120979;28;19960;-62
2022/03/20 11:54:19;;;;;;;;;;;;;;;12.12;41.02;99344.63;5123156;28;19950;-61
2022/03/20 11:56:48;;;;;;;;;;;;;;;12.15;41.52;99354.88;5124544;28;19992;-61
2022/03/20 11:59:29;;;;;;;;;;;;;;;12.22;41.60;99348.34;5123487;28;19924;-61
2022/03/20 12:01:59;;;;;;;;;;;;;;;12.17;41.12;99342.88;5120677;28;19927;-61
2022/03/20 12:04:31;;;;;;;;;;;;;;;12.22;40.81;99344.84;5123698;28;19962;-61
2022/03/20 12:07:14;;;;;;;;;;;;;;;12.37;40.50;99337.09;5124339;28;19923;-61
2022/03/20 12:09:55;;;;;;;;;;;;;;;12.30;40.44;99336.41;5112086;28;19955;-61
2022/03/20 12:16:05;;;;;;;;;;;;;;;12.58;40.28;99336.41;5120173;27;20439;-62
2022/03/20 12:18:47;;;;;;;;;;;;;;;12.69;40.01;99335.50;5107742;28;19931;-61
2022/03/20 12:21:14;;;;;;;;;;;;;;;12.63;39.86;99332.97;5107676;28;19987;-61
2022/03/20 12:23:43;;;;;;;;;;;;;;;12.51;39.95;99333.06;5107702;28;19951;-61
2022/03/20 12:26:33;;;;;;;;;;;;;;;12.56;40.03;99325.13;5107700;28;19925;-61
2022/03/20 12:29:18;;;;;;;;;;;;;;;12.48;39.94;99317.44;5115320;28;19924;-62
2022/03/20 12:31:56;;;;;;;;;;;;;;;12.49;40.41;99319.09;5114942;28;19978;-61
2022/03/20 12:34:25;;;;;;;;;;;;;;;12.65;39.71;99323.66;5118574;28;19925;-61
2022/03/20 12:36:51;;;;;;;;;;;;;;;12.52;40.06;99317.78;5119528;28;19987;-61
2022/03/20 12:39:32;;;;;;;;;;;;;;;12.53;39.61;99322.94;5118018;28;19924;-60
2022/03/20 12:41:59;;;;;;;;;;;;;;;12.58;39.72;99314.97;5117669;28;19951;-61
2022/03/20 12:44:25;;;;;;;;;;;;;;;12.83;38.86;99322.63;5119375;28;19932;-60
2022/03/20 12:46:51;;;;;;;;;;;;;;;12.87;38.19;99323.78;5119432;28;19983;-61
2022/03/20 12:49:20;;;;;;;;;;;;;;;12.87;38.85;99327.25;5117561;28;19926;-60
2022/03/20 12:51:47;;;;;;;;;;;;;;;12.87;39.40;99327.25;5115647;28;20079;-61
2022/03/20 12:54:15;;;;;;;;;;;;;;;12.88;39.06;99318.16;5117093;28;19924;-61
2022/03/20 12:56:55;;;;;;;;;;;;;;;12.96;39.08;99312.41;5119108;28;20026;-61
2022/03/20 12:59:23;;;;;;;;;;;;;;;12.95;38.81;99308.09;5116892;28;19928;-62
2022/03/20 13:01:49;;;;;;;;;;;;;;;13.10;39.07;99322.81;5115385;28;19956;-61
2022/03/20 13:04:16;;;;;;;;;;;;;;;13.07;38.63;99320.59;5116851;28;19924;-61
2022/03/20 13:06:44;;;;;;;;;;;;;;;12.91;37.86;99311.47;5118834;28;19924;-61
2022/03/20 13:09:10;;;;;;;;;;;;;;;12.94;37.68;99303.78;5118444;28;19983;-60
2022/03/20 13:11:56;;;;;;;;;;;;;;;12.93;37.65;99304.84;5115441;28;19971;-61
2022/03/20 13:14:23;;;;;;;;;;;;;;;12.98;37.83;99304.91;5117418;28;19952;-61
2022/03/20 13:16:50;;;;;;;;;;;;;;;13.16;38.06;99305.72;5118594;28;19987;-60
2022/03/20 13:19:25;;;;;;;;;;;;;;;13.05;38.76;99312.78;5116978;28;19932;-61
2022/03/20 13:21:53;;;;;;;;;;;;;;;12.86;39.11;99298.00;5115171;28;20511;-60
2022/03/20 13:24:26;;;;;;;;;;;;;;;13.05;38.62;99302.06;5116965;28;19976;-61
2022/03/20 13:26:55;;;;;;;;;;;;;;;13.11;38.26;99308.34;5107846;28;19996;-61
2022/03/20 13:29:22;;;;;;;;;;;;;;;13.15;37.49;99299.56;5102691;28;19932;-60
2022/03/20 13:31:58;;;;;;;;;;;;;;;13.15;37.70;99298.75;5101497;28;19964;-60
2022/03/20 13:34:24;;;;;;;;;;;;;;;13.12;37.71;99301.94;5104312;28;20015;-60
2022/03/20 13:36:51;;;;;;;;;;;;;;;13.21;37.39;99295.09;5105287;28;19924;-61